Time;durP1;ratioP1;P1;durP2;ratioP2;P2;SDS_P1;SDS_P2;PMS_P1;PMS_P2;Temp;Humidity;BMP_temperature;BMP_pressure;BME280_temperature;BME280_humidity;BME280_pressure;Samples;Min_cycle;Max_cycle;Signal;HPM_P1;HPM_P2
2022/06/26 00:00:15;;;;;;;22.30;15.98;;;;;;;26.23;52.94;101282.88;5084511;28;20050;-72
2022/06/26 00:02:41;;;;;;;22.90;16.10;;;;;;;27.18;50.81;101279.78;5070576;28;20403;-71
2022/06/26 00:05:07;;;;;;;26.48;17.15;;;;;;;26.18;54.06;101285.03;5090224;28;20059;-71
2022/06/26 00:07:33;;;;;;;24.73;16.17;;;;;;;27.05;49.88;101285.19;5089955;28;20023;-71
2022/06/26 00:09:59;;;;;;;28.42;17.30;;;;;;;26.51;51.11;101294.34;5074194;28;20030;-71
2022/06/26 00:12:24;;;;;;;29.42;16.42;;;;;;;25.63;56.47;101296.78;5075033;28;20043;-71
2022/06/26 00:14:50;;;;;;;22.50;15.60;;;;;;;25.99;53.82;101289.91;5070457;28;20031;-72
2022/06/26 00:17:15;;;;;;;27.08;16.80;;;;;;;25.14;57.14;101300.81;5070592;28;20029;-71
2022/06/26 00:19:41;;;;;;;27.05;15.70;;;;;;;25.81;53.53;101297.38;5074956;28;21653;-72
2022/06/26 00:22:06;;;;;;;27.20;15.95;;;;;;;25.88;54.19;101304.88;5088735;28;20032;-72
2022/06/26 00:24:33;;;;;;;23.08;13.95;;;;;;;24.86;58.54;101299.88;5089319;28;20035;-72
2022/06/26 00:26:58;;;;;;;18.50;13.38;;;;;;;24.92;55.94;101299.50;5072293;28;20123;-71
2022/06/26 00:29:24;;;;;;;20.75;13.27;;;;;;;25.50;53.98;101294.91;5070077;28;20116;-71
2022/06/26 00:31:49;;;;;;;17.50;12.77;;;;;;;26.14;52.55;101288.88;5070378;28;20135;-71
2022/06/26 00:34:14;;;;;;;20.88;12.13;;;;;;;24.52;57.23;101292.16;5069780;28;20111;-71
2022/06/26 00:36:40;;;;;;;17.13;10.88;;;;;;;24.20;57.46;101302.13;5085592;28;20119;-71
2022/06/26 00:39:05;;;;;;;16.80;11.48;;;;;;;25.06;55.40;101304.00;5070768;28;20431;-71
2022/06/26 00:41:31;;;;;;;17.10;11.07;;;;;;;26.30;50.93;101303.91;5090241;28;20055;-71
2022/06/26 00:43:56;;;;;;;19.63;11.57;;;;;;;25.94;52.33;101308.09;5088494;28;20529;-71
2022/06/26 00:46:24;;;;;;;18.60;11.13;;;;;;;24.79;54.91;101304.75;5090573;28;20039;-71
2022/06/26 00:48:50;;;;;;;16.15;11.80;;;;;;;25.33;53.31;101303.19;5090309;28;20472;-71
2022/06/26 00:51:16;;;;;;;21.63;11.90;;;;;;;25.29;54.77;101312.31;5088542;28;20043;-71
2022/06/26 00:53:41;;;;;;;20.00;11.90;;;;;;;24.80;54.69;101311.84;5076415;28;20028;-71
2022/06/26 00:56:07;;;;;;;17.58;12.23;;;;;;;25.18;52.88;101321.91;5090476;28;20309;-71
2022/06/26 00:58:32;;;;;;;16.58;11.10;;;;;;;25.54;52.29;101315.16;5088716;28;20479;-71
2022/06/26 01:00:57;;;;;;;15.95;10.85;;;;;;;26.06;51.42;101323.38;5088800;28;20028;-71
2022/06/26 01:03:23;;;;;;;21.08;13.68;;;;;;;24.14;56.73;101330.03;5080321;28;20020;-71
2022/06/26 01:05:48;;;;;;;28.58;14.02;;;;;;;24.12;58.36;101325.75;5089381;28;20066;-71
2022/06/26 01:08:14;;;;;;;23.33;13.23;;;;;;;24.07;58.83;101323.34;5073484;28;20028;-71
2022/06/26 01:10:39;;;;;;;20.33;14.07;;;;;;;25.57;52.64;101320.31;5074073;28;20032;-71
2022/06/26 01:13:06;;;;;;;24.92;14.93;;;;;;;24.48;56.05;101319.13;5077865;28;20021;-71
2022/06/26 01:15:32;;;;;;;26.15;16.48;;;;;;;24.13;58.27;101317.63;5070128;28;20023;-72
2022/06/26 01:17:58;;;;;;;26.05;16.02;;;;;;;24.83;54.94;101306.28;5069177;28;20032;-71
2022/06/26 01:20:23;;;;;;;25.23;15.73;;;;;;;24.25;57.78;101320.50;5081861;28;20444;-71
2022/06/26 01:23:06;;;;;;;25.08;14.95;;;;;;;24.82;54.93;101314.41;5087795;28;20043;-71
2022/06/26 01:25:46;;;;;;;28.83;16.45;;;;;;;23.41;60.58;101325.34;5076205;28;20048;-72
2022/06/26 01:28:12;;;;;;;24.35;14.57;;;;;;;25.52;51.78;101322.41;5070064;28;20032;-71
2022/06/26 01:30:38;;;;;;;25.33;15.48;;;;;;;24.88;54.00;101324.69;5069429;28;20024;-71
2022/06/26 01:33:05;;;;;;;26.48;15.30;;;;;;;24.40;56.94;101319.63;5069644;28;20025;-72
2022/06/26 01:35:30;;;;;;;27.30;16.02;;;;;;;25.31;52.87;101311.28;5078917;28;20074;-72
2022/06/26 01:38:06;;;;;;;26.73;16.77;;;;;;;23.47;62.74;101324.97;5088117;28;20053;-71
2022/06/26 01:40:31;;;;;;;26.45;14.63;;;;;;;23.96;60.49;101325.78;5080358;28;20102;-72
2022/06/26 01:42:57;;;;;;;20.95;13.70;;;;;;;23.79;59.58;101330.25;5091110;28;20036;-71
2022/06/26 01:45:22;;;;;;;22.63;13.40;;;;;;;23.02;63.10;101323.88;5093698;28;20111;-71
2022/06/26 01:47:48;;;;;;;21.33;13.05;;;;;;;24.00;57.24;101321.97;5092341;28;20024;-72
2022/06/26 01:50:14;;;;;;;26.00;13.75;;;;;;;24.03;58.69;101327.16;5088039;28;20024;-71
2022/06/26 01:52:39;;;;;;;25.20;14.25;;;;;;;24.79;54.95;101320.78;5081048;28;20047;-72
2022/06/26 01:55:05;;;;;;;27.70;14.48;;;;;;;24.73;54.71;101326.53;5092749;28;20023;-71
2022/06/26 01:57:30;;;;;;;25.27;14.63;;;;;;;24.40;56.56;101327.63;5092536;28;20111;-71
2022/06/26 01:59:56;;;;;;;23.83;15.48;;;;;;;24.55;54.68;101331.16;5085491;28;20028;-71
2022/06/26 02:02:21;;;;;;;25.15;13.35;;;;;;;25.07;52.95;101327.06;5081161;28;20101;-72
2022/06/26 02:04:46;;;;;;;19.85;12.90;;;;;;;23.88;55.86;101331.59;5086502;28;20021;-72
2022/06/26 02:07:12;;;;;;;24.58;13.25;;;;;;;24.88;53.64;101325.56;5073990;28;20029;-71
2022/06/26 02:15:07;;;;;;;27.52;13.95;;;;;;;24.36;53.75;101334.09;5073687;28;20027;-71
2022/06/26 02:17:32;;;;;;;23.80;14.25;;;;;;;24.31;54.36;101326.34;5076867;28;20498;-71
2022/06/26 02:19:57;;;;;;;26.75;14.50;;;;;;;23.73;56.82;101325.28;5073337;28;20024;-71
2022/06/26 02:22:23;;;;;;;24.73;14.25;;;;;;;24.09;55.98;101316.09;5071718;28;20039;-71
2022/06/26 02:24:48;;;;;;;22.85;13.98;;;;;;;24.10;55.01;101322.28;5072446;28;20067;-71
2022/06/26 02:27:13;;;;;;;24.95;13.93;;;;;;;24.31;54.22;101306.81;5072309;28;20025;-71
2022/06/26 02:29:39;;;;;;;22.58;13.60;;;;;;;23.24;58.21;101317.41;5071423;28;20392;-72
2022/06/26 02:32:05;;;;;;;25.23;12.95;;;;;;;24.75;53.12;101307.72;5072205;28;20400;-72
2022/06/26 02:34:30;;;;;;;25.88;13.40;;;;;;;24.15;54.04;101310.41;5073942;28;20016;-71
2022/06/26 02:36:55;;;;;;;28.88;13.40;;;;;;;25.09;51.42;101311.81;5072490;28;20146;-72
2022/06/26 02:39:21;;;;;;;22.40;13.30;;;;;;;24.87;51.02;101309.63;5072093;28;20369;-72
2022/06/26 02:41:46;;;;;;;26.33;13.85;;;;;;;24.42;52.63;101312.34;5087432;28;20408;-72
2022/06/26 02:44:11;;;;;;;24.63;13.10;;;;;;;24.97;50.69;101307.22;5093167;28;20069;-72
2022/06/26 02:46:37;;;;;;;25.00;11.90;;;;;;;24.08;54.24;101317.03;5091535;28;20113;-72
2022/06/26 02:49:02;;;;;;;22.33;11.88;;;;;;;24.62;50.81;101307.63;5091388;28;20024;-71
2022/06/26 02:51:27;;;;;;;26.05;13.50;;;;;;;24.01;53.11;101313.03;5090078;28;20024;-72
2022/06/26 02:53:53;;;;;;;23.80;12.15;;;;;;;24.19;54.44;101317.28;5091409;28;20024;-72
2022/06/26 02:56:18;;;;;;;24.65;11.77;;;;;;;24.44;52.69;101315.81;5082736;28;20035;-72
2022/06/26 02:58:43;;;;;;;24.33;12.05;;;;;;;24.60;51.71;101320.19;5089911;28;20035;-72
2022/06/26 03:01:09;;;;;;;22.83;12.27;;;;;;;23.90;54.69;101334.16;5091238;28;20035;-72
2022/06/26 03:03:34;;;;;;;21.55;12.05;;;;;;;23.67;54.92;101333.63;5074377;28;20089;-72
2022/06/26 03:05:59;;;;;;;23.48;12.70;;;;;;;23.98;53.71;101337.25;5072069;28;20025;-72
2022/06/26 03:08:25;;;;;;;22.10;11.82;;;;;;;23.91;53.30;101333.22;5078324;28;20438;-73
2022/06/26 03:10:50;;;;;;;21.92;12.60;;;;;;;23.78;55.47;101339.25;5088663;28;20032;-73
2022/06/26 03:13:16;;;;;;;23.33;12.70;;;;;;;24.54;51.86;101338.31;5091211;28;20475;-73
2022/06/26 03:15:41;;;;;;;27.45;13.23;;;;;;;24.25;53.16;101341.88;5093529;28;20047;-72
2022/06/26 03:18:07;;;;;;;24.85;12.00;;;;;;;23.54;54.52;101347.69;5086820;28;20035;-72
2022/06/26 03:20:32;;;;;;;24.25;12.38;;;;;;;24.22;52.71;101341.13;5075290;28;20027;-73
2022/06/26 03:22:57;;;;;;;23.30;12.73;;;;;;;22.77;57.28;101346.53;5090911;28;20476;-72
2022/06/26 03:25:23;;;;;;;28.42;12.98;;;;;;;23.80;53.96;101358.69;5092672;28;20046;-73
2022/06/26 03:27:49;;;;;;;23.83;12.00;;;;;;;24.19;53.14;101362.69;5091869;28;20091;-72
2022/06/26 03:30:15;;;;;;;25.23;14.40;;;;;;;23.97;53.85;101359.53;5090490;28;20491;-72
2022/06/26 03:32:40;;;;;;;25.50;12.70;;;;;;;24.31;51.80;101342.38;5091014;28;20027;-72
2022/06/26 03:35:06;;;;;;;27.90;13.48;;;;;;;23.14;55.68;101352.56;5091406;28;20020;-72
2022/06/26 03:37:32;;;;;;;27.35;13.23;;;;;;;23.70;54.36;101354.84;5084919;28;20069;-72
2022/06/26 03:39:57;;;;;;;25.63;12.68;;;;;;;23.71;53.90;101362.75;5071019;28;20053;-73
2022/06/26 03:42:23;;;;;;;25.52;13.18;;;;;;;23.59;54.92;101359.88;5071552;28;20086;-72
2022/06/26 03:44:48;;;;;;;22.50;12.90;;;;;;;23.71;53.86;101375.22;5043021;28;20045;-72
2022/06/26 03:47:13;;;;;;;27.73;12.73;;;;;;;23.71;53.74;101376.09;5033891;28;20117;-72
2022/06/26 03:49:39;;;;;;;26.30;11.75;;;;;;;23.92;53.11;101372.28;5034110;28;20558;-72
2022/06/26 03:52:05;;;;;;;26.38;12.55;;;;;;;24.11;52.56;101377.41;5047130;28;20059;-72
2022/06/26 03:54:30;;;;;;;24.60;12.18;;;;;;;24.46;51.51;101367.31;5052573;28;20391;-72
2022/06/26 03:56:56;;;;;;;28.85;12.95;;;;;;;24.12;53.07;101376.47;5054566;28;20029;-72
2022/06/26 03:59:21;;;;;;;23.20;11.80;;;;;;;23.63;54.92;101372.09;5069665;28;20031;-72
2022/06/26 04:01:47;;;;;;;20.92;11.07;;;;;;;23.15;57.28;101382.75;5069015;28;20468;-72
2022/06/26 04:04:12;;;;;;;25.38;11.15;;;;;;;23.14;56.26;101371.22;5054266;28;20086;-72
2022/06/26 04:06:37;;;;;;;23.52;10.98;;;;;;;23.12;55.87;101378.47;5052385;28;20024;-72
2022/06/26 04:09:03;;;;;;;25.73;12.60;;;;;;;23.73;54.82;101384.00;5041973;28;20032;-72
2022/06/26 04:11:29;;;;;;;24.90;12.40;;;;;;;23.90;53.83;101382.22;5063979;28;20021;-72
2022/06/26 04:13:54;;;;;;;24.85;11.60;;;;;;;23.18;55.70;101372.78;5071506;28;20035;-73
2022/06/26 04:16:20;;;;;;;22.80;11.95;;;;;;;23.77;54.66;101374.00;5047578;28;20059;-72
2022/06/26 04:18:45;;;;;;;26.23;12.02;;;;;;;23.32;56.34;101379.19;5053020;28;20408;-73
2022/06/26 04:21:10;;;;;;;21.88;12.00;;;;;;;23.97;54.52;101391.56;5051895;28;20295;-72
2022/06/26 04:23:36;;;;;;;24.13;12.20;;;;;;;23.44;54.99;101388.28;5053338;28;20020;-72
2022/06/26 04:26:02;;;;;;;26.45;11.13;;;;;;;23.00;57.43;101387.09;5044347;28;20056;-72
2022/06/26 04:28:27;;;;;;;22.40;11.90;;;;;;;22.78;58.56;101396.22;5033372;28;20107;-72
2022/06/26 04:30:52;;;;;;;27.63;12.90;;;;;;;22.98;57.59;101392.47;5045545;28;20186;-73
2022/06/26 04:33:18;;;;;;;26.73;12.43;;;;;;;22.74;61.19;101397.34;5034084;28;20029;-72
2022/06/26 04:35:43;;;;;;;20.20;11.25;;;;;;;24.13;54.84;101397.75;5044341;28;20017;-72
2022/06/26 04:38:08;;;;;;;25.98;12.15;;;;;;;24.48;53.22;101407.28;5034051;28;20032;-72
2022/06/26 04:40:34;;;;;;;21.95;11.05;;;;;;;23.64;54.53;101389.84;5048168;28;20428;-72
2022/06/26 04:42:59;;;;;;;27.05;11.65;;;;;;;24.17;54.55;101393.94;5070466;28;20063;-72
2022/06/26 04:45:25;;;;;;;19.17;9.95;;;;;;;24.75;53.35;101404.81;5083403;28;20086;-72
2022/06/26 04:47:50;;;;;;;22.45;11.23;;;;;;;25.55;51.23;101409.66;5090883;28;20070;-72
2022/06/26 04:50:16;;;;;;;28.60;11.30;;;;;;;24.54;54.45;101422.97;5087077;28;20020;-72
2022/06/26 04:52:46;;;;;;;18.70;8.90;;;;;;;24.97;52.15;101420.38;5088974;28;20463;-72
2022/06/26 04:55:12;;;;;;;15.88;8.70;;;;;;;24.52;52.42;101431.09;5082382;28;20085;-73
2022/06/26 04:57:37;;;;;;;12.68;7.47;;;;;;;23.60;54.35;101441.66;5070401;28;20036;-72
2022/06/26 05:00:08;;;;;;;13.55;6.85;;;;;;;25.97;48.41;101439.13;5074603;28;20024;-72
2022/06/26 05:02:35;;;;;;;11.73;7.70;;;;;;;26.34;46.73;101436.72;5085235;28;20024;-72
2022/06/26 05:05:01;;;;;;;13.38;6.22;;;;;;;26.89;45.48;101440.97;5089699;28;20408;-72
2022/06/26 05:07:26;;;;;;;12.90;5.95;;;;;;;27.99;43.07;101441.22;5080034;28;20051;-72
2022/06/26 05:09:52;;;;;;;9.90;5.65;;;;;;;27.14;43.75;101443.78;5076502;28;20032;-72
2022/06/26 05:12:17;;;;;;;8.10;5.07;;;;;;;27.51;43.85;101444.72;5076186;28;20083;-72
2022/06/26 05:14:42;;;;;;;12.13;6.45;;;;;;;28.04;42.35;101438.22;5087895;28;20080;-72
2022/06/26 05:17:09;;;;;;;9.40;4.78;;;;;;;28.65;41.16;101437.25;5078782;28;20111;-72
2022/06/26 05:19:35;;;;;;;7.07;5.15;;;;;;;27.59;42.38;101439.63;5084219;28;20030;-72
2022/06/26 05:22:02;;;;;;;8.02;4.95;;;;;;;26.82;44.37;101450.44;5073889;28;20036;-72
2022/06/26 05:24:29;;;;;;;9.95;4.47;;;;;;;28.16;41.80;101437.28;5081027;28;20035;-72
2022/06/26 05:26:56;;;;;;;6.15;4.43;;;;;;;27.65;41.87;101443.69;5074060;28;20491;-72
2022/06/26 05:29:22;;;;;;;7.07;3.85;;;;;;;25.53;46.82;101439.22;5075926;28;20032;-72
2022/06/26 05:31:47;;;;;;;7.18;4.68;;;;;;;25.76;46.78;101436.00;5080106;28;20080;-72
2022/06/26 05:34:12;;;;;;;8.48;4.15;;;;;;;25.27;46.97;101450.69;5082357;28;20063;-72
2022/06/26 05:36:38;;;;;;;9.88;5.75;;;;;;;25.88;47.10;101454.84;5073985;28;20129;-72
2022/06/26 05:39:03;;;;;;;10.15;4.50;;;;;;;25.41;47.18;101461.41;5073165;28;20025;-73
2022/06/26 05:41:29;;;;;;;8.15;4.60;;;;;;;25.68;47.10;101452.59;5073096;28;20048;-72
2022/06/26 05:43:54;;;;;;;7.80;4.18;;;;;;;25.36;47.74;101463.50;5077113;28;20039;-72
2022/06/26 05:46:19;;;;;;;10.95;4.53;;;;;;;26.41;46.11;101462.13;5094449;28;20064;-72
2022/06/26 05:48:45;;;;;;;8.70;3.72;;;;;;;26.28;45.91;101469.25;5093778;28;20020;-72
2022/06/26 05:51:10;;;;;;;11.10;4.10;;;;;;;26.57;45.25;101465.47;5092400;28;20035;-73
2022/06/26 05:53:37;;;;;;;7.93;4.03;;;;;;;26.31;44.71;101467.25;5077292;28;20051;-72
2022/06/26 05:56:03;;;;;;;7.65;3.70;;;;;;;26.16;45.81;101469.13;5073309;28;20028;-72
2022/06/26 05:58:29;;;;;;;9.43;3.67;;;;;;;26.36;45.58;101480.31;5072467;28;20032;-72
2022/06/26 06:00:54;;;;;;;6.57;3.95;;;;;;;27.40;43.28;101472.31;5073452;28;20043;-72
2022/06/26 06:03:20;;;;;;;10.20;4.43;;;;;;;27.33;43.63;101475.53;5074979;28;20407;-73
2022/06/26 06:05:45;;;;;;;8.40;4.40;;;;;;;26.28;44.79;101482.66;5073050;28;20033;-72
2022/06/26 06:08:11;;;;;;;7.97;3.50;;;;;;;27.40;42.59;101487.56;5071726;28;20595;-72
2022/06/26 06:10:36;;;;;;;11.32;3.55;;;;;;;27.35;43.22;101489.69;5072992;28;20032;-72
2022/06/26 06:13:02;;;;;;;6.90;3.15;;;;;;;26.93;43.60;101497.97;5091722;28;20036;-73
2022/06/26 06:15:27;;;;;;;7.95;3.78;;;;;;;26.64;43.60;101505.25;5091200;28;20069;-72
2022/06/26 06:17:53;;;;;;;5.53;3.70;;;;;;;26.02;44.71;101498.59;5094448;28;20031;-72
2022/06/26 06:20:25;;;;;;;7.35;3.67;;;;;;;27.05;41.83;101504.28;5092727;28;20111;-72
2022/06/26 06:23:00;;;;;;;8.27;3.53;;;;;;;28.18;40.97;101505.22;5074607;28;20013;-72
2022/06/26 06:25:26;;;;;;;6.90;3.60;;;;;;;26.83;43.02;101511.16;5072798;28;20029;-72
2022/06/26 06:27:51;;;;;;;8.63;3.00;;;;;;;28.42;40.63;101512.41;5071977;28;20509;-72
2022/06/26 06:30:17;;;;;;;5.57;3.13;;;;;;;28.48;40.22;101514.66;5072711;28;20025;-73
2022/06/26 06:32:45;;;;;;;5.00;2.80;;;;;;;27.19;42.25;101532.81;5091780;28;20053;-73
2022/06/26 06:35:13;;;;;;;6.03;3.10;;;;;;;27.31;42.16;101536.50;5081020;28;20036;-72
2022/06/26 06:37:39;;;;;;;5.40;2.85;;;;;;;26.15;44.57;101534.34;5092677;28;20422;-72
2022/06/26 06:40:05;;;;;;;8.70;3.70;;;;;;;26.38;43.06;101546.25;5087560;28;20052;-72
2022/06/26 06:42:30;;;;;;;7.47;3.20;;;;;;;26.30;44.21;101558.44;5084397;28;20043;-72
2022/06/26 06:44:56;;;;;;;6.57;2.65;;;;;;;25.24;46.08;101578.31;5091323;28;20161;-72
2022/06/26 06:47:21;;;;;;;5.78;2.58;;;;;;;25.81;45.14;101565.94;5092582;28;20024;-72
2022/06/26 06:49:46;;;;;;;7.18;2.70;;;;;;;27.84;41.33;101568.59;5090323;28;20127;-72
2022/06/26 06:52:12;;;;;;;4.57;2.80;;;;;;;27.99;40.30;101572.00;5091423;28;20048;-72
2022/06/26 06:54:37;;;;;;;9.18;3.00;;;;;;;27.40;40.55;101578.81;5086626;28;20069;-73
2022/06/26 06:57:03;;;;;;;4.50;2.90;;;;;;;28.22;40.34;101571.22;5080137;28;20024;-72
2022/06/26 06:59:29;;;;;;;5.25;2.55;;;;;;;27.77;40.01;101576.22;5092272;28;20020;-72
2022/06/26 07:01:54;;;;;;;4.78;2.45;;;;;;;27.41;40.25;101572.50;5089332;28;20111;-72
2022/06/26 07:04:20;;;;;;;4.20;2.40;;;;;;;28.39;39.60;101572.63;5089094;28;20047;-72
2022/06/26 07:06:46;;;;;;;4.35;2.42;;;;;;;29.60;37.34;101591.28;5073335;28;20020;-72
2022/06/26 07:09:12;;;;;;;4.45;2.30;;;;;;;27.41;40.87;101586.75;5071987;28;20507;-72
2022/06/26 07:11:37;;;;;;;4.68;2.63;;;;;;;28.13;40.44;101577.25;5081839;28;20028;-72
2022/06/26 07:14:03;;;;;;;4.55;2.85;;;;;;;29.19;38.12;101576.50;5072631;28;20028;-72
2022/06/26 07:16:28;;;;;;;5.53;2.60;;;;;;;28.91;37.86;101583.19;5080688;28;20505;-72
2022/06/26 07:18:54;;;;;;;6.22;2.33;;;;;;;30.34;36.15;101578.28;5076078;28;20447;-72
2022/06/26 07:21:19;;;;;;;5.50;2.08;;;;;;;29.98;36.31;101578.47;5084705;28;20032;-73
2022/06/26 07:23:45;;;;;;;3.28;2.35;;;;;;;28.98;36.88;101588.94;5072738;28;20059;-72
2022/06/26 07:26:10;;;;;;;4.60;2.40;;;;;;;28.57;38.04;101596.44;5091047;28;20028;-72
2022/06/26 07:28:36;;;;;;;5.30;2.00;;;;;;;29.20;37.03;101598.91;5078966;28;20039;-72
2022/06/26 07:31:01;;;;;;;4.47;2.20;;;;;;;29.80;38.54;101586.16;5069107;28;20488;-73
2022/06/26 07:36:11;;;;;;;2.40;2.05;;;;;;;30.50;35.01;101584.16;5072991;28;20557;-72
2022/06/26 07:38:36;;;;;;;7.22;1.95;;;;;;;27.71;39.20;101603.50;5075007;28;20025;-72
2022/06/26 07:41:02;;;;;;;2.53;1.83;;;;;;;28.16;38.48;101614.63;5073728;28;20048;-72
2022/06/26 07:43:27;;;;;;;8.18;2.22;;;;;;;28.57;37.67;101605.34;5084834;28;20051;-73
2022/06/26 07:45:52;;;;;;;3.70;1.98;;;;;;;28.48;38.18;101600.69;5080066;28;20077;-72
2022/06/26 07:48:18;;;;;;;3.55;2.00;;;;;;;29.86;35.45;101607.25;5077637;28;20065;-72
2022/06/26 07:50:43;;;;;;;5.53;1.70;;;;;;;28.36;36.29;101609.66;5081034;28;20020;-72
2022/06/26 07:53:09;;;;;;;3.35;1.58;;;;;;;30.32;34.75;101601.78;5069855;28;20113;-72
2022/06/26 07:55:35;;;;;;;4.53;1.77;;;;;;;29.72;35.07;101610.16;5069688;28;20029;-73
2022/06/26 07:58:00;;;;;;;5.30;1.80;;;;;;;30.72;34.83;101609.28;5070916;28;20032;-72
2022/06/26 08:00:26;;;;;;;4.82;1.77;;;;;;;32.44;32.44;101604.28;5069389;28;20112;-72
2022/06/26 08:02:52;;;;;;;3.05;1.63;;;;;;;33.27;32.10;101612.00;5085282;28;20032;-72
2022/06/26 08:05:17;;;;;;;4.18;1.48;;;;;;;32.02;30.07;101609.00;5072057;28;20047;-73
2022/06/26 08:07:43;;;;;;;1.25;1.10;;;;;;;32.35;30.41;101620.50;5078065;28;20365;-72
2022/06/26 08:10:08;;;;;;;1.55;1.27;;;;;;;31.47;31.85;101621.78;5070635;28;20043;-72
2022/06/26 08:12:34;;;;;;;3.22;1.38;;;;;;;32.27;30.43;101623.91;5081881;28;20039;-72
2022/06/26 08:14:59;;;;;;;5.60;1.40;;;;;;;33.90;29.41;101620.53;5076259;28;21490;-73
2022/06/26 08:17:25;;;;;;;2.70;1.02;;;;;;;32.93;28.46;101615.16;5023323;28;21373;-73
2022/06/26 08:19:50;;;;;;;3.55;1.00;;;;;;;34.16;27.32;101609.81;5079861;28;20126;-73
2022/06/26 08:22:16;;;;;;;2.63;1.20;;;;;;;34.21;27.31;101602.09;5077540;28;20373;-72
2022/06/26 08:24:41;;;;;;;2.95;1.00;;;;;;;32.68;28.20;101602.16;5090111;28;20035;-73
2022/06/26 08:27:08;;;;;;;3.13;1.05;;;;;;;32.74;27.78;101598.91;5082525;28;20020;-72
2022/06/26 08:29:34;;;;;;;2.53;1.02;;;;;;;35.10;27.40;101605.81;5070438;28;20546;-73
2022/06/26 08:31:59;;;;;;;2.10;1.02;;;;;;;34.86;27.24;101603.78;5071303;28;20178;-73
2022/06/26 08:34:25;;;;;;;4.35;1.10;;;;;;;32.37;27.58;101613.09;5084684;28;20383;-73
2022/06/26 08:36:52;;;;;;;1.88;0.85;;;;;;;32.43;28.26;101617.97;5088439;28;20062;-73
2022/06/26 08:39:17;;;;;;;1.83;1.00;;;;;;;32.11;28.25;101614.44;5079628;28;20020;-73
2022/06/26 08:41:48;;;;;;;3.08;0.90;;;;;;;31.56;30.00;101625.56;5052075;28;20056;-73
2022/06/26 08:44:14;;;;;;;2.17;1.42;;;;;;;30.54;30.95;101631.44;5052037;28;20044;-73
2022/06/26 08:46:42;;;;;;;3.03;0.90;;;;;;;30.73;31.23;101638.00;5041681;28;20028;-73
2022/06/26 08:49:13;;;;;;;2.17;1.67;;;;;;;29.50;33.84;101638.78;5052943;28;20095;-73
2022/06/26 08:51:43;;;;;;;3.20;1.20;;;;;;;29.69;34.03;101635.50;5053555;28;20024;-73
2022/06/26 08:54:12;;;;;;;4.10;1.38;;;;;;;30.12;33.31;101629.41;5052094;28;20028;-73
2022/06/26 08:56:39;;;;;;;2.75;1.23;;;;;;;29.87;32.94;101626.94;5054070;28;20120;-72
2022/06/26 08:59:04;;;;;;;2.03;1.10;;;;;;;28.72;34.58;101627.59;5057589;28;20028;-73
2022/06/26 09:01:30;;;;;;;2.95;1.30;;;;;;;29.14;35.40;101637.06;5039679;28;20029;-73
2022/06/26 09:03:55;;;;;;;4.25;1.20;;;;;;;30.93;32.53;101612.88;5068081;28;20472;-73
2022/06/26 09:06:21;;;;;;;2.88;1.10;;;;;;;34.09;29.94;101611.44;5045882;28;20164;-73
2022/06/26 09:08:49;;;;;;;3.15;1.13;;;;;;;33.73;27.77;101617.56;5052518;28;20024;-73
2022/06/26 09:11:16;;;;;;;2.45;1.30;;;;;;;31.70;29.57;101628.94;5057986;28;20059;-74
2022/06/26 09:13:42;;;;;;;3.60;1.38;;;;;;;32.41;30.31;101625.34;5063252;28;20086;-73
2022/06/26 09:16:09;;;;;;;4.57;1.35;;;;;;;33.71;28.52;101634.97;5038399;28;20122;-73
2022/06/26 09:18:39;;;;;;;3.47;1.98;;;;;;;34.39;27.85;101633.81;5038637;28;20053;-73
2022/06/26 09:21:06;;;;;;;2.60;1.40;;;;;;;33.35;28.10;101642.94;5057749;28;20033;-73
2022/06/26 09:23:33;;;;;;;3.03;1.25;;;;;;;32.09;30.90;101642.59;5061910;28;20585;-73
2022/06/26 09:26:00;;;;;;;2.90;1.40;;;;;;;32.48;30.17;101638.19;5042336;28;20029;-73
2022/06/26 09:28:26;;;;;;;4.03;1.50;;;;;;;31.09;31.08;101644.00;5040514;28;20365;-73
2022/06/26 09:30:59;;;;;;;2.95;1.30;;;;;;;31.99;31.06;101647.97;5045693;28;20131;-73
2022/06/26 09:33:25;;;;;;;6.18;1.55;;;;;;;32.21;30.98;101641.53;5056640;28;20032;-73
2022/06/26 09:35:51;;;;;;;8.20;1.63;;;;;;;30.62;33.31;101642.47;5032941;28;20430;-74
2022/06/26 09:38:23;;;;;;;3.47;1.40;;;;;;;31.01;32.30;101639.25;5032753;28;20025;-73
2022/06/26 09:40:53;;;;;;;2.80;1.17;;;;;;;31.05;31.83;101647.94;5054720;28;20052;-73
2022/06/26 09:43:48;;;;;;;4.85;1.58;;;;;;;33.93;29.24;101653.59;5057869;28;20032;-73
2022/06/26 09:46:14;;;;;;;5.63;1.50;;;;;;;34.56;27.49;101652.00;5044534;28;20450;-73
2022/06/26 09:48:41;;;;;;;2.65;1.00;;;;;;;33.12;28.25;101662.16;5046528;28;20025;-73
2022/06/26 09:51:12;;;;;;;4.68;1.42;;;;;;;33.12;29.05;101656.75;5045003;28;20039;-73
2022/06/26 09:53:38;;;;;;;2.10;1.37;;;;;;;33.50;28.74;101660.44;5037748;28;20025;-73
2022/06/26 09:56:05;;;;;;;1.95;1.27;;;;;;;33.31;27.72;101656.75;5044889;28;20392;-73
2022/06/26 09:58:31;;;;;;;2.30;1.50;;;;;;;32.72;29.02;101650.47;5036469;28;20465;-73
2022/06/26 10:06:28;;;;;;;4.32;1.20;;;;;;;32.57;29.02;101652.69;5057453;28;20076;-73
2022/06/26 10:09:02;;;;;;;3.22;2.15;;;;;;;32.58;29.55;101643.59;5061524;28;20025;-73
2022/06/26 10:11:30;;;;;;;3.33;1.65;;;;;;;32.87;29.66;101650.91;5066233;28;20040;-73
2022/06/26 10:14:09;;;;;;;2.80;1.38;;;;;;;31.19;30.52;101654.88;5032220;28;20032;-74
2022/06/26 10:16:50;;;;;;;3.10;1.50;;;;;;;32.55;27.96;101654.72;5034690;28;20039;-72
2022/06/26 10:19:37;;;;;;;3.97;1.40;;;;;;;32.71;27.85;101653.31;5044188;28;20035;-72
2022/06/26 10:22:03;;;;;;;2.65;1.13;;;;;;;31.62;29.14;101657.47;5047794;28;20047;-73
2022/06/26 10:24:28;;;;;;;4.53;1.55;;;;;;;32.43;29.18;101655.81;5035176;28;20021;-72
2022/06/26 10:26:56;;;;;;;4.20;1.33;;;;;;;31.69;28.90;101667.75;5041740;28;20029;-72
2022/06/26 10:29:39;;;;;;;3.50;1.90;;;;;;;32.20;28.96;101658.75;5039325;28;20036;-72
2022/06/26 10:32:07;;;;;;;4.57;1.70;;;;;;;31.74;30.71;101666.34;5054160;28;20035;-73
2022/06/26 10:34:32;;;;;;;3.85;1.80;;;;;;;30.96;29.86;101661.19;5059592;28;20395;-73
2022/06/26 10:37:14;;;;;;;4.38;2.35;;;;;;;30.01;33.19;101669.84;5050658;28;20024;-73
2022/06/26 10:39:42;;;;;;;3.17;1.43;;;;;;;30.04;30.88;101669.56;5047102;28;20040;-72
2022/06/26 10:45:09;;;;;;;5.53;2.80;;;;;;;31.07;31.86;101672.97;5074536;28;20043;-73
2022/06/26 10:47:55;;;;;;;;;;;;;;;30.90;32.32;101661.72;5080232;28;20487;-73
2022/06/26 10:50:24;;;;;;;2.53;1.50;;;;;;;32.59;30.91;101672.38;5089838;28;20380;-73
2022/06/26 10:52:49;;;;;;;3.50;1.98;;;;;;;31.99;28.83;101668.75;5076238;28;20084;-73
2022/06/26 10:55:15;;;;;;;7.97;2.00;;;;;;;31.69;29.79;101673.16;5072027;28;20028;-73
2022/06/26 10:57:40;;;;;;;6.05;2.08;;;;;;;30.67;30.92;101668.19;5079246;28;20123;-71
2022/06/26 11:00:08;;;;;;;4.22;1.98;;;;;;;30.66;30.74;101675.41;5077980;28;21346;-71
2022/06/26 11:02:39;;;;;;;3.80;2.20;;;;;;;30.60;30.93;101666.00;5051109;28;20047;-72
2022/06/26 11:05:07;;;;;;;5.57;2.72;;;;;;;29.80;32.23;101667.00;5072418;28;20537;-71
2022/06/26 11:07:47;;;;;;;4.65;3.35;;;;;;;31.13;31.79;101661.66;5086482;28;20028;-72
2022/06/26 11:10:14;;;;;;;3.83;3.40;;;;;;;30.05;32.50;101670.47;5074365;28;20395;-71
2022/06/26 11:12:45;;;;;;;5.38;3.75;;;;;;;29.75;32.70;101670.03;5077854;28;20035;-71
2022/06/26 11:15:26;;;;;;;6.47;3.00;;;;;;;31.35;30.65;101665.22;5086973;28;20113;-71
2022/06/26 11:17:59;;;;;;;3.60;3.25;;;;;;;31.48;30.11;101665.88;5070348;28;20038;-71
2022/06/26 11:23:18;;;;;;;6.18;3.53;;;;;;;30.90;31.30;101661.72;5089257;28;20090;-71
2022/06/26 11:25:45;;;;;;;6.00;2.85;;;;;;;31.96;29.73;101664.47;5071273;28;20040;-71
2022/06/26 11:28:12;;;;;;;6.72;3.25;;;;;;;30.31;31.03;101654.00;5091144;28;20024;-71
2022/06/26 11:30:39;;;;;;;3.65;2.67;;;;;;;31.35;29.87;101657.97;5090533;28;20020;-71
2022/06/26 11:33:06;;;;;;;3.75;2.60;;;;;;;31.78;29.89;101650.75;5090425;28;20101;-71
2022/06/26 11:35:34;;;;;;;6.75;2.92;;;;;;;30.21;31.29;101653.88;5089134;28;20020;-71